createdAt,value
2019-01-06T00:02:28.061Z,7.93
2019-01-06T00:07:39.580Z,7.70
2019-01-06T00:12:52.357Z,6.17
2019-01-06T00:18:15.255Z,7.23
2019-01-06T00:23:26.184Z,6.80
2019-01-06T00:28:33.553Z,13.23
2019-01-06T00:33:45.192Z,6.10
2019-01-06T00:38:56.077Z,5.43
2019-01-06T00:44:07.775Z,7.87
2019-01-06T00:49:19.509Z,6.60
2019-01-06T00:54:31.302Z,6.43
2019-01-06T00:59:43.794Z,6.93
2019-01-06T01:05:06.659Z,7.83
2019-01-06T01:10:28.292Z,7.63
2019-01-06T01:15:39.527Z,5.93
2019-01-06T01:20:51.988Z,7.57
2019-01-06T01:26:13.591Z,7.73
2019-01-06T01:31:24.612Z,7.10
2019-01-06T01:36:46.021Z,5.53
2019-01-06T01:42:09.319Z,7.10
2019-01-06T01:47:20.322Z,7.97
2019-01-06T01:52:41.433Z,9.47
2019-01-06T01:57:53.949Z,7.67
2019-01-06T02:03:18.367Z,10.83
2019-01-06T02:08:44.187Z,7.40
2019-01-06T02:14:08.804Z,8.17
2019-01-06T02:19:18.986Z,9.97
2019-01-06T02:24:40.643Z,7.23
2019-01-06T02:30:11.371Z,6.13
2019-01-06T02:35:24.490Z,9.33
2019-01-06T02:40:55.128Z,6.57
2019-01-06T02:45:57.541Z,7.77
2019-01-06T02:51:12.225Z,6.40
2019-01-06T02:56:23.514Z,10.33
2019-01-06T03:01:35.013Z,8.73
2019-01-06T03:06:46.285Z,8.43
2019-01-06T03:12:01.809Z,8.43
2019-01-06T03:17:17.467Z,7.27
2019-01-06T03:22:48.205Z,5.27
2019-01-06T03:27:59.401Z,7.93
2019-01-06T03:33:10.588Z,7.80
2019-01-06T03:38:36.598Z,7.83
2019-01-06T03:43:48.207Z,7.03
2019-01-06T03:48:59.632Z,10.47
2019-01-06T03:54:10.946Z,6.30
2019-01-06T03:59:35.904Z,6.33
2019-01-06T04:04:51.068Z,5.23
2019-01-06T04:10:02.418Z,5.83
2019-01-06T04:15:15.572Z,7.07
2019-01-06T04:20:28.075Z,6.93
2019-01-06T04:25:39.411Z,6.47
2019-01-06T04:30:54.401Z,6.77
2019-01-06T04:36:06.860Z,8.47
2019-01-06T04:41:34.453Z,9.13
2019-01-06T04:46:48.482Z,8.47
2019-01-06T04:52:09.763Z,8.43
2019-01-06T04:57:37.534Z,7.70
2019-01-06T05:02:48.915Z,9.20
2019-01-06T05:08:00.240Z,7.80
2019-01-06T05:13:11.607Z,6.50
2019-01-06T05:18:22.425Z,8.60
2019-01-06T05:23:37.026Z,10.97
2019-01-06T05:28:45.371Z,13.63
2019-01-06T05:33:57.892Z,10.77
2019-01-06T05:39:10.477Z,11.93
2019-01-06T05:44:22.977Z,12.73
2019-01-06T05:49:35.457Z,10.80
2019-01-06T05:54:59.902Z,10.37
2019-01-06T06:00:27.695Z,10.20
2019-01-06T06:05:49.436Z,11.30
2019-01-06T06:10:56.481Z,11.90
2019-01-06T06:16:07.774Z,11.20
2019-01-06T06:21:29.534Z,11.00
2019-01-06T06:26:40.888Z,9.00
2019-01-06T06:31:59.413Z,11.50
2019-01-06T06:37:11.974Z,13.07
2019-01-06T06:42:24.652Z,11.50
2019-01-06T06:47:36.061Z,11.40
2019-01-06T06:52:48.431Z,8.77
2019-01-06T06:58:45.025Z,7.63
2019-01-06T07:03:59.921Z,10.93
2019-01-06T07:09:15.418Z,10.20
2019-01-06T07:14:26.915Z,9.13
2019-01-06T07:19:41.830Z,9.70
2019-01-06T07:24:54.185Z,9.77
2019-01-06T07:30:06.627Z,11.30
2019-01-06T07:35:18.111Z,9.73
2019-01-06T07:40:31.059Z,10.43
2019-01-06T07:45:49.899Z,14.90
2019-01-06T07:51:14.783Z,11.97
2019-01-06T07:56:25.898Z,15.67
2019-01-06T08:01:37.287Z,13.53
2019-01-06T08:06:48.892Z,16.93
2019-01-06T08:12:07.710Z,19.33
2019-01-06T08:17:19.252Z,18.90
2019-01-06T08:22:40.783Z,15.87
2019-01-06T08:28:05.629Z,18.33
2019-01-06T08:33:16.670Z,19.93
2019-01-06T08:38:28.031Z,18.23
2019-01-06T08:43:39.391Z,22.93
2019-01-06T08:48:50.748Z,17.37
2019-01-06T08:54:09.390Z,23.60
2019-01-06T08:59:20.739Z,22.33
2019-01-06T09:04:25.707Z,22.23
2019-01-06T09:09:45.725Z,20.47
2019-01-06T09:14:51.362Z,23.20
2019-01-06T09:20:03.848Z,22.70
2019-01-06T09:25:41.015Z,22.53
2019-01-06T09:30:51.697Z,25.57
2019-01-06T09:36:03.384Z,23.97
2019-01-06T09:41:18.612Z,27.23
2019-01-06T09:46:40.060Z,23.40
2019-01-06T09:51:55.305Z,21.77
2019-01-06T09:57:06.640Z,23.60
2019-01-06T10:02:19.163Z,23.30
2019-01-06T10:07:30.507Z,21.10
2019-01-06T10:12:46.984Z,17.27
2019-01-06T10:18:17.863Z,19.07
2019-01-06T10:23:36.451Z,16.63
2019-01-06T10:28:47.630Z,14.67
2019-01-06T10:34:03.172Z,15.27
2019-01-06T10:39:27.699Z,17.70
2019-01-06T10:44:42.959Z,15.47
2019-01-06T10:50:04.650Z,15.20
2019-01-06T10:55:21.653Z,14.03
2019-01-06T11:00:33.906Z,14.07
2019-01-06T11:05:43.137Z,16.10
2019-01-06T11:10:54.304Z,17.03
2019-01-06T11:16:13.138Z,14.47
2019-01-06T11:21:32.453Z,16.37
2019-01-06T11:26:54.379Z,15.40
2019-01-06T11:32:11.136Z,15.53
2019-01-06T11:37:23.438Z,15.20
2019-01-06T11:42:34.707Z,15.10
2019-01-06T11:47:46.183Z,15.23
2019-01-06T11:52:57.522Z,14.63
2019-01-06T11:58:09.033Z,14.43
2019-01-06T12:03:31.494Z,14.63
2019-01-06T12:08:45.955Z,17.07
2019-01-06T12:13:56.695Z,13.43
2019-01-06T12:19:12.451Z,13.97
2019-01-06T12:24:31.673Z,12.83
2019-01-06T12:29:48.390Z,13.83
2019-01-06T12:35:00.586Z,15.50
2019-01-06T12:40:05.470Z,14.10
2019-01-06T12:45:16.921Z,16.10
2019-01-06T12:50:29.528Z,16.13
2019-01-06T12:55:42.015Z,15.90
2019-01-06T13:01:00.603Z,16.60
2019-01-06T13:06:25.279Z,17.23
2019-01-06T13:11:49.352Z,18.83
2019-01-06T13:17:20.470Z,19.97
2019-01-06T13:22:35.927Z,22.73
2019-01-06T13:28:02.788Z,18.20
2019-01-06T13:33:29.388Z,17.80
2019-01-06T13:38:44.714Z,17.93
2019-01-06T13:43:59.971Z,18.73
2019-01-06T13:49:30.505Z,19.40
2019-01-06T13:54:43.214Z,15.30
2019-01-06T14:00:08.061Z,19.13
2019-01-06T14:05:33.252Z,18.93
2019-01-06T14:10:45.923Z,17.07
2019-01-06T14:15:57.162Z,17.50
2019-01-06T14:21:25.384Z,20.40
2019-01-06T14:26:50.349Z,20.27
2019-01-06T14:32:15.672Z,19.23
2019-01-06T14:37:31.956Z,17.00
2019-01-06T14:42:49.431Z,19.83
2019-01-06T14:47:52.381Z,20.80
2019-01-06T14:53:05.187Z,20.47
2019-01-06T14:58:33.055Z,16.70
2019-01-06T15:04:12.103Z,18.57
2019-01-06T15:09:23.944Z,15.60
2019-01-06T15:14:42.699Z,19.87
2019-01-06T15:19:54.136Z,19.37
2019-01-06T15:25:09.413Z,17.43
2019-01-06T15:30:36.115Z,14.93
2019-01-06T15:35:46.650Z,16.93
2019-01-06T15:41:01.715Z,18.23
2019-01-06T15:46:12.765Z,16.70
2019-01-06T15:51:30.880Z,15.97
2019-01-06T15:56:40.283Z,15.77
2019-01-06T16:02:10.885Z,15.43
2019-01-06T16:07:26.266Z,19.77
2019-01-06T16:12:37.420Z,13.73
2019-01-06T16:17:49.978Z,15.77
2019-01-06T16:23:01.860Z,15.27
2019-01-06T16:28:12.880Z,15.87
2019-01-06T16:33:34.509Z,16.00
2019-01-06T16:38:45.989Z,20.33
2019-01-06T16:44:05.283Z,15.53
2019-01-06T16:49:27.093Z,15.70
2019-01-06T16:54:42.839Z,17.07
2019-01-06T16:59:55.397Z,16.07
2019-01-06T17:05:08.018Z,16.97
2019-01-06T17:10:17.669Z,18.30
2019-01-06T17:15:42.447Z,19.77
2019-01-06T17:20:46.421Z,19.63
2019-01-06T17:26:03.638Z,16.63
2019-01-06T17:31:14.980Z,18.97
2019-01-06T17:36:26.295Z,20.53
2019-01-06T17:41:49.264Z,21.47
2019-01-06T17:47:00.504Z,20.37
2019-01-06T17:52:19.288Z,19.60
2019-01-06T17:57:47.225Z,20.13
2019-01-06T18:02:58.610Z,21.40
2019-01-06T18:08:10.138Z,22.00
2019-01-06T18:13:21.570Z,18.77
2019-01-06T18:18:32.559Z,23.67
2019-01-06T18:23:51.177Z,21.53
2019-01-06T18:29:18.717Z,22.37
2019-01-06T18:34:37.406Z,18.60
2019-01-06T18:39:48.642Z,21.80
2019-01-06T18:45:13.483Z,18.77
2019-01-06T18:50:30.192Z,20.50
2019-01-06T18:55:41.419Z,22.63
2019-01-06T19:00:48.209Z,20.63
2019-01-06T19:05:57.995Z,22.73
2019-01-06T19:11:09.377Z,22.37
2019-01-06T19:16:35.590Z,21.67
2019-01-06T19:21:51.014Z,22.07
2019-01-06T19:27:15.638Z,23.37
2019-01-06T19:32:31.532Z,21.87
2019-01-06T19:37:55.522Z,18.53
2019-01-06T19:43:15.073Z,18.33
2019-01-06T19:48:40.898Z,19.27
2019-01-06T19:53:52.377Z,14.93
2019-01-06T19:59:17.554Z,18.07
2019-01-06T20:04:33.756Z,18.47
2019-01-06T20:09:37.684Z,19.00
2019-01-06T20:14:46.176Z,17.80
2019-01-06T20:20:07.441Z,19.97
2019-01-06T20:25:19.058Z,17.17
2019-01-06T20:30:31.641Z,15.83
2019-01-06T20:35:44.385Z,16.60
2019-01-06T20:40:55.821Z,14.90
2019-01-06T20:46:23.813Z,19.83
2019-01-06T20:51:46.767Z,19.40
2019-01-06T20:56:57.912Z,17.33
2019-01-06T21:02:10.540Z,18.57
2019-01-06T21:07:35.291Z,17.83
2019-01-06T21:12:47.852Z,21.87
2019-01-06T21:18:00.855Z,20.03
2019-01-06T21:23:15.045Z,22.03
2019-01-06T21:28:37.640Z,19.83
2019-01-06T21:33:42.620Z,21.20
2019-01-06T21:38:57.185Z,24.20
2019-01-06T21:44:09.328Z,21.93
2019-01-06T21:49:27.520Z,22.70
2019-01-06T21:54:42.502Z,23.23
2019-01-06T21:59:58.315Z,23.50
2019-01-06T22:05:11.404Z,27.27
2019-01-06T22:10:24.616Z,21.83
2019-01-06T22:15:51.203Z,24.33
2019-01-06T22:21:02.811Z,22.20
2019-01-06T22:26:09.496Z,22.80
2019-01-06T22:31:30.719Z,23.33
2019-01-06T22:36:43.207Z,29.03
2019-01-06T22:42:13.607Z,24.07
2019-01-06T22:47:30.267Z,23.13
2019-01-06T22:52:50.931Z,26.47
2019-01-06T22:58:11.626Z,21.63
2019-01-06T23:03:24.670Z,19.87
2019-01-06T23:08:40.337Z,22.50
2019-01-06T23:14:06.447Z,22.10
2019-01-06T23:19:29.059Z,25.57
2019-01-06T23:24:40.202Z,25.40
2019-01-06T23:30:02.368Z,23.37
2019-01-06T23:35:17.599Z,24.10
2019-01-06T23:40:28.986Z,21.53
2019-01-06T23:45:47.492Z,25.10
2019-01-06T23:51:15.300Z,26.83
2019-01-06T23:56:34.570Z,27.67
